createdAt,value
2022-11-03T00:02:10.112Z,18.18
2022-11-03T00:04:38.058Z,18.22
2022-11-03T00:07:05.638Z,18.08
2022-11-03T00:09:33.310Z,18.10
2022-11-03T00:12:02.427Z,17.82
2022-11-03T00:14:32.238Z,17.98
2022-11-03T00:17:00.076Z,17.81
2022-11-03T00:19:28.096Z,17.93
2022-11-03T00:21:58.771Z,18.06
2022-11-03T00:24:26.824Z,17.97
2022-11-03T00:26:54.595Z,18.10
2022-11-03T00:29:22.727Z,18.13
2022-11-03T00:31:50.845Z,18.10
2022-11-03T00:34:18.970Z,18.11
2022-11-03T00:36:52.941Z,17.99
2022-11-03T00:39:20.644Z,18.04
2022-11-03T00:41:48.239Z,18.06
2022-11-03T00:44:15.938Z,18.07
2022-11-03T00:46:43.774Z,18.11
2022-11-03T00:49:11.479Z,18.06
2022-11-03T00:51:39.035Z,17.96
2022-11-03T00:54:07.828Z,18.00
2022-11-03T00:56:41.179Z,17.91
2022-11-03T00:59:10.520Z,17.90
2022-11-03T01:01:47.142Z,17.74
2022-11-03T01:04:35.789Z,17.72
2022-11-03T01:07:04.706Z,17.61
2022-11-03T01:09:39.549Z,17.73
2022-11-03T01:12:18.605Z,17.53
2022-11-03T01:14:57.752Z,17.51
2022-11-03T01:17:34.741Z,17.63
2022-11-03T01:20:02.644Z,17.61
2022-11-03T01:22:30.712Z,17.65
2022-11-03T01:24:58.284Z,17.51
2022-11-03T01:27:26.591Z,17.62
2022-11-03T01:29:54.457Z,17.51
2022-11-03T01:32:22.910Z,17.64
2022-11-03T01:34:51.832Z,17.67
2022-11-03T01:37:19.860Z,17.76
2022-11-03T01:39:47.419Z,17.83
2022-11-03T01:42:15.286Z,17.70
2022-11-03T01:44:49.724Z,17.64
2022-11-03T01:47:33.775Z,17.72
2022-11-03T01:50:03.996Z,17.74
2022-11-03T01:52:49.969Z,17.72
2022-11-03T01:55:22.957Z,17.70
2022-11-03T01:58:08.233Z,17.69
2022-11-03T02:00:37.587Z,17.63
2022-11-03T02:03:07.112Z,17.59
2022-11-03T02:05:35.572Z,17.63
2022-11-03T02:08:12.256Z,17.65
2022-11-03T02:10:41.241Z,17.67
2022-11-03T02:13:21.087Z,17.66
2022-11-03T02:15:54.556Z,17.45
2022-11-03T02:18:30.899Z,17.39
2022-11-03T02:21:16.303Z,17.43
2022-11-03T02:24:19.542Z,17.39
2022-11-03T02:26:51.280Z,17.36
2022-11-03T02:29:19.113Z,17.34
2022-11-03T02:32:05.879Z,17.25
2022-11-03T02:34:48.848Z,17.23
2022-11-03T02:37:21.395Z,17.26
2022-11-03T02:39:55.984Z,17.36
2022-11-03T02:42:25.014Z,17.40
2022-11-03T02:44:55.302Z,17.34
2022-11-03T02:47:25.952Z,17.43
2022-11-03T02:52:43.369Z,17.49
2022-11-03T02:55:21.781Z,17.49
2022-11-03T02:58:23.668Z,17.51
2022-11-03T03:01:03.634Z,17.44
2022-11-03T03:03:49.184Z,17.41
2022-11-03T03:06:34.414Z,17.34
2022-11-03T03:09:07.951Z,17.48
2022-11-03T03:11:40.182Z,17.38
2022-11-03T03:14:25.575Z,17.47
2022-11-03T03:17:06.828Z,17.53
2022-11-03T03:19:49.301Z,17.52
2022-11-03T03:22:29.516Z,17.53
2022-11-03T03:25:17.116Z,17.66
2022-11-03T03:27:55.199Z,17.62
2022-11-03T03:30:23.736Z,17.53
2022-11-03T03:32:55.274Z,17.48
2022-11-03T03:35:27.920Z,17.48
2022-11-03T03:38:02.430Z,17.45
2022-11-03T03:40:34.829Z,17.47
2022-11-03T03:43:06.972Z,17.58
2022-11-03T03:45:36.915Z,17.50
2022-11-03T03:48:08.503Z,17.39
2022-11-03T03:50:38.273Z,17.19
2022-11-03T03:53:11.189Z,17.05
2022-11-03T03:55:44.690Z,17.10
2022-11-03T03:58:14.982Z,17.05
2022-11-03T04:00:43.223Z,17.08
2022-11-03T04:03:19.006Z,17.12
2022-11-03T04:05:47.510Z,17.25
2022-11-03T04:08:16.374Z,17.19
2022-11-03T04:11:05.993Z,17.22
2022-11-03T04:13:52.776Z,17.24
2022-11-03T04:16:39.476Z,17.37
2022-11-03T04:19:30.012Z,17.34
2022-11-03T04:22:16.808Z,17.38
2022-11-03T04:24:50.576Z,17.36
2022-11-03T04:27:36.042Z,17.43
2022-11-03T04:30:09.946Z,17.51
2022-11-03T04:32:37.932Z,17.53
2022-11-03T04:35:15.843Z,17.53
2022-11-03T04:37:47.346Z,17.57
2022-11-03T04:40:17.815Z,17.55
2022-11-03T04:42:47.000Z,17.50
2022-11-03T04:45:31.069Z,17.56
2022-11-03T04:48:02.232Z,17.53
2022-11-03T04:50:29.798Z,17.55
2022-11-03T04:53:01.179Z,17.56
2022-11-03T04:55:33.400Z,17.57
2022-11-03T04:58:07.961Z,17.55
2022-11-03T05:00:36.152Z,17.54
2022-11-03T05:03:05.308Z,17.58
2022-11-03T05:05:33.346Z,17.48
2022-11-03T05:08:01.251Z,17.47
2022-11-03T05:10:30.190Z,17.49
2022-11-03T05:13:00.871Z,17.51
2022-11-03T05:15:48.888Z,17.44
2022-11-03T05:18:35.805Z,17.46
2022-11-03T05:21:18.535Z,17.28
2022-11-03T05:23:58.869Z,17.36
2022-11-03T05:26:33.278Z,17.39
2022-11-03T05:29:04.955Z,17.44
2022-11-03T05:31:36.100Z,17.44
2022-11-03T05:34:20.752Z,17.41
2022-11-03T05:36:48.564Z,17.51
2022-11-03T05:39:35.540Z,17.47
2022-11-03T05:42:20.572Z,17.39
2022-11-03T05:44:49.264Z,17.42
2022-11-03T05:47:23.783Z,17.48
2022-11-03T05:49:57.498Z,17.48
2022-11-03T05:52:28.023Z,17.51
2022-11-03T05:54:59.212Z,17.56
2022-11-03T05:57:30.605Z,17.59
2022-11-03T05:59:58.789Z,17.59
2022-11-03T06:02:42.514Z,17.57
2022-11-03T06:05:23.129Z,17.55
2022-11-03T06:07:53.336Z,17.59
2022-11-03T06:10:27.701Z,17.63
2022-11-03T06:13:28.573Z,17.72
2022-11-03T06:16:19.946Z,17.62
2022-11-03T06:18:48.177Z,17.65
2022-11-03T06:21:24.896Z,17.64
2022-11-03T06:24:01.971Z,17.69
2022-11-03T06:26:31.851Z,17.68
2022-11-03T06:29:01.422Z,17.71
2022-11-03T06:31:32.342Z,17.73
2022-11-03T06:34:00.281Z,17.80
2022-11-03T06:36:32.910Z,17.67
2022-11-03T06:39:18.350Z,17.76
2022-11-03T06:41:46.516Z,17.75
2022-11-03T06:44:28.926Z,17.82
2022-11-03T06:47:02.230Z,17.87
2022-11-03T06:49:33.901Z,17.93
2022-11-03T06:52:29.503Z,18.03
2022-11-03T06:55:01.429Z,18.05
2022-11-03T06:57:33.965Z,18.13
2022-11-03T07:00:20.253Z,18.18
2022-11-03T07:03:17.750Z,18.17
2022-11-03T07:05:46.138Z,18.21
2022-11-03T07:08:33.990Z,18.20
2022-11-03T07:11:32.760Z,18.12
2022-11-03T07:14:18.697Z,18.14
2022-11-03T07:17:03.154Z,18.17
2022-11-03T07:19:38.930Z,18.15
2022-11-03T07:22:10.545Z,18.16
2022-11-03T07:24:42.949Z,18.02
2022-11-03T07:27:26.032Z,18.17
2022-11-03T07:29:59.010Z,18.12
2022-11-03T07:32:33.633Z,18.19
2022-11-03T07:36:00.552Z,18.32
2022-11-03T07:38:25.384Z,18.42
2022-11-03T07:40:55.041Z,18.42
2022-11-03T07:43:35.327Z,18.53
2022-11-03T07:46:05.408Z,18.59
2022-11-03T07:48:46.098Z,18.66
2022-11-03T07:51:33.007Z,18.66
2022-11-03T07:54:09.314Z,18.74
2022-11-03T07:56:44.606Z,18.79
2022-11-03T07:59:19.663Z,18.72
2022-11-03T08:01:57.030Z,18.81
2022-11-03T08:04:36.232Z,18.86
2022-11-03T08:07:03.971Z,18.85
2022-11-03T08:09:31.872Z,18.91
2022-11-03T08:12:07.332Z,18.96
2022-11-03T08:14:38.530Z,19.00
2022-11-03T08:17:06.309Z,19.01
2022-11-03T08:19:42.570Z,18.98
2022-11-03T08:22:10.068Z,18.96
2022-11-03T08:24:37.596Z,18.93
2022-11-03T08:27:05.603Z,19.12
2022-11-03T08:29:33.796Z,19.24
2022-11-03T08:32:05.429Z,19.34
2022-11-03T08:34:40.702Z,19.43
2022-11-03T08:37:08.659Z,19.43
2022-11-03T08:39:36.625Z,19.56
2022-11-03T08:42:04.509Z,19.80
2022-11-03T08:44:32.647Z,19.90
2022-11-03T08:47:00.651Z,19.98
2022-11-03T08:49:28.455Z,20.10
2022-11-03T08:51:55.950Z,20.12
2022-11-03T08:54:23.181Z,20.16
2022-11-03T08:56:50.888Z,20.17
2022-11-03T08:59:18.931Z,20.20
2022-11-03T09:01:47.225Z,20.16
2022-11-03T09:04:14.591Z,20.18
2022-11-03T09:06:42.043Z,20.16
2022-11-03T09:11:56.755Z,20.23
2022-11-03T09:14:24.394Z,20.30
2022-11-03T09:16:52.073Z,20.43
2022-11-03T09:19:19.654Z,20.46
2022-11-03T09:21:47.362Z,20.46
2022-11-03T09:24:15.086Z,20.63
2022-11-03T09:26:42.428Z,20.62
2022-11-03T09:29:10.337Z,20.70
2022-11-03T09:31:37.657Z,20.79
2022-11-03T09:34:05.007Z,20.96
2022-11-03T09:36:32.367Z,21.06
2022-11-03T09:39:00.064Z,21.13
2022-11-03T09:41:45.836Z,21.31
2022-11-03T09:44:15.115Z,21.38
2022-11-03T09:46:42.580Z,21.46
2022-11-03T09:49:15.314Z,21.53
2022-11-03T09:51:43.622Z,21.61
2022-11-03T09:54:15.992Z,21.71
2022-11-03T09:56:44.556Z,21.76
2022-11-03T09:59:22.802Z,21.79
2022-11-03T10:01:53.856Z,21.95
2022-11-03T10:04:27.688Z,21.99
2022-11-03T10:06:57.617Z,22.09
2022-11-03T10:09:26.823Z,22.22
2022-11-03T10:11:55.187Z,22.35
2022-11-03T10:14:24.309Z,22.40
2022-11-03T10:16:56.558Z,22.51
2022-11-03T10:19:25.447Z,22.61
2022-11-03T10:21:53.326Z,22.73
2022-11-03T10:24:20.823Z,22.85
2022-11-03T10:26:51.084Z,22.96
2022-11-03T10:31:50.729Z,23.08
2022-11-03T10:34:38.056Z,23.17
2022-11-03T10:37:21.138Z,23.22
2022-11-03T10:39:51.277Z,23.31
2022-11-03T10:42:21.483Z,23.34
2022-11-03T10:44:52.197Z,23.38
2022-11-03T10:47:34.539Z,23.43
2022-11-03T10:50:19.883Z,23.43
2022-11-03T10:52:51.032Z,23.43
2022-11-03T10:55:25.232Z,23.39
2022-11-03T10:57:58.411Z,23.42
2022-11-03T11:00:26.559Z,23.40
2022-11-03T11:02:59.663Z,23.39
2022-11-03T11:05:30.940Z,23.34
2022-11-03T11:08:00.452Z,23.35
2022-11-03T11:10:30.186Z,23.34
2022-11-03T11:13:06.393Z,23.33
2022-11-03T11:16:30.056Z,23.35
2022-11-03T11:18:57.734Z,23.31
2022-11-03T11:21:25.919Z,23.43
2022-11-03T11:23:53.307Z,23.55
2022-11-03T11:26:26.855Z,23.59
2022-11-03T11:29:12.045Z,23.62
2022-11-03T11:31:43.997Z,23.67
2022-11-03T11:34:12.871Z,23.69
2022-11-03T11:36:42.173Z,23.76
2022-11-03T11:39:13.240Z,23.79
2022-11-03T11:42:15.879Z,23.83
2022-11-03T11:44:43.603Z,23.82
2022-11-03T11:47:29.466Z,23.80
2022-11-03T11:50:12.131Z,23.80
2022-11-03T11:52:52.419Z,23.77
2022-11-03T11:55:43.000Z,23.82
2022-11-03T11:58:22.737Z,23.82
2022-11-03T12:00:56.807Z,23.83
2022-11-03T12:03:35.436Z,23.77
2022-11-03T12:06:03.491Z,23.74
2022-11-03T12:08:32.597Z,23.71
2022-11-03T12:11:05.633Z,23.73
2022-11-03T12:13:49.257Z,23.70
2022-11-03T12:16:34.289Z,23.74
2022-11-03T12:19:37.137Z,23.76
2022-11-03T12:22:31.897Z,23.78
2022-11-03T12:25:01.049Z,23.77
2022-11-03T12:27:31.998Z,23.82
2022-11-03T12:30:27.204Z,23.79
2022-11-03T12:33:01.178Z,23.78
2022-11-03T12:35:28.683Z,23.76
2022-11-03T12:38:05.966Z,23.78
2022-11-03T12:40:35.466Z,23.72
2022-11-03T12:43:05.159Z,23.74
2022-11-03T12:45:32.939Z,23.79
2022-11-03T12:48:08.037Z,23.77
2022-11-03T12:50:38.097Z,23.75
2022-11-03T12:53:17.141Z,23.79
2022-11-03T12:55:45.309Z,23.77
2022-11-03T12:58:13.044Z,23.82
2022-11-03T13:00:40.584Z,23.78
2022-11-03T13:03:08.226Z,23.82
2022-11-03T13:05:35.949Z,23.82
2022-11-03T13:08:03.876Z,23.81
2022-11-03T13:10:31.540Z,23.77
2022-11-03T13:12:59.012Z,23.75
2022-11-03T13:15:26.529Z,23.68
2022-11-03T13:20:41.763Z,23.57
2022-11-03T13:23:09.646Z,23.54
2022-11-03T13:25:37.348Z,23.51
2022-11-03T13:28:10.386Z,23.36
2022-11-03T13:30:38.352Z,23.20
2022-11-03T13:33:06.319Z,23.09
2022-11-03T13:35:34.931Z,23.07
2022-11-03T13:38:03.192Z,23.00
2022-11-03T13:43:18.161Z,23.02
2022-11-03T13:45:48.062Z,23.03
2022-11-03T13:51:07.616Z,22.95
2022-11-03T13:56:23.839Z,22.98
2022-11-03T14:01:40.762Z,22.96
2022-11-03T14:07:05.194Z,22.88
2022-11-03T14:09:33.963Z,22.83
2022-11-03T14:12:20.272Z,22.87
2022-11-03T14:14:50.629Z,22.86
2022-11-03T14:17:20.150Z,22.84
2022-11-03T14:19:52.416Z,22.81
2022-11-03T14:22:24.970Z,22.84
2022-11-03T14:24:54.875Z,22.85
2022-11-03T14:27:22.794Z,22.87
2022-11-03T14:29:54.730Z,22.89
2022-11-03T14:32:25.393Z,22.83
2022-11-03T14:35:10.904Z,22.81
2022-11-03T14:37:50.839Z,22.80
2022-11-03T14:40:40.554Z,22.81
2022-11-03T14:43:15.661Z,22.74
2022-11-03T14:45:48.714Z,22.79
2022-11-03T14:48:16.496Z,22.83
2022-11-03T14:50:44.278Z,22.86
2022-11-03T14:53:19.475Z,22.77
2022-11-03T14:55:47.675Z,22.85
2022-11-03T14:58:15.305Z,22.85
2022-11-03T15:00:43.123Z,22.91
2022-11-03T15:03:10.933Z,22.91
2022-11-03T15:05:47.312Z,22.99
2022-11-03T15:08:20.218Z,23.00
2022-11-03T15:10:48.120Z,23.05
2022-11-03T15:13:16.908Z,23.07
2022-11-03T15:15:44.306Z,23.11
2022-11-03T15:18:12.136Z,23.06
2022-11-03T15:20:40.572Z,23.01
2022-11-03T15:25:57.860Z,22.97
2022-11-03T15:28:25.571Z,22.90
2022-11-03T15:31:31.499Z,22.86
2022-11-03T15:34:08.999Z,22.79
2022-11-03T15:36:39.566Z,22.83
2022-11-03T15:39:07.258Z,22.81
2022-11-03T15:41:35.028Z,22.60
2022-11-03T15:44:03.507Z,22.64
2022-11-03T15:46:31.129Z,22.66
2022-11-03T15:48:58.626Z,22.61
2022-11-03T15:51:27.031Z,22.67
2022-11-03T15:53:58.478Z,22.66
2022-11-03T15:56:33.057Z,22.65
2022-11-03T15:59:02.459Z,22.59
2022-11-03T16:01:31.189Z,22.56
2022-11-03T16:04:01.685Z,22.54
2022-11-03T16:06:53.841Z,22.51
2022-11-03T16:09:18.482Z,22.50
2022-11-03T16:11:46.762Z,22.50
2022-11-03T16:14:14.148Z,22.47
2022-11-03T16:16:41.448Z,22.48
2022-11-03T16:19:10.691Z,22.44
2022-11-03T16:21:41.834Z,22.42
2022-11-03T16:24:10.130Z,22.42
2022-11-03T16:26:38.320Z,22.28
2022-11-03T16:29:12.596Z,22.28
2022-11-03T16:31:42.042Z,22.30
2022-11-03T16:34:13.141Z,22.17
2022-11-03T16:36:40.647Z,22.15
2022-11-03T16:39:08.666Z,22.17
2022-11-03T16:41:36.445Z,22.08
2022-11-03T16:44:04.317Z,22.03
2022-11-03T16:46:32.105Z,22.02
2022-11-03T16:51:28.011Z,21.97
2022-11-03T16:54:07.878Z,21.85
2022-11-03T16:56:41.969Z,21.89
2022-11-03T16:59:09.344Z,21.85
2022-11-03T17:01:37.296Z,21.86
2022-11-03T17:04:05.583Z,21.85
2022-11-03T17:06:33.549Z,21.81
2022-11-03T17:09:02.070Z,21.79
2022-11-03T17:11:39.799Z,21.70
2022-11-03T17:14:13.741Z,21.76
2022-11-03T17:16:52.142Z,21.72
2022-11-03T17:19:20.419Z,21.66
2022-11-03T17:21:48.158Z,21.71
2022-11-03T17:24:15.644Z,21.71
2022-11-03T17:26:53.398Z,21.67
2022-11-03T17:29:24.776Z,21.65
2022-11-03T17:31:54.138Z,21.63
2022-11-03T17:34:25.076Z,21.55
2022-11-03T17:36:54.118Z,21.54
2022-11-03T17:39:29.542Z,21.55
2022-11-03T17:42:17.250Z,21.55
2022-11-03T17:44:47.529Z,21.49
2022-11-03T17:47:18.893Z,21.50
2022-11-03T17:49:47.144Z,21.49
2022-11-03T17:52:28.229Z,21.42
2022-11-03T17:55:00.858Z,21.43
2022-11-03T17:57:29.308Z,21.42
2022-11-03T18:00:00.768Z,21.37
2022-11-03T18:02:32.698Z,21.37
2022-11-03T18:05:28.002Z,21.41
2022-11-03T18:07:57.688Z,21.42
2022-11-03T18:10:34.692Z,21.42
2022-11-03T18:13:19.281Z,21.36
2022-11-03T18:16:07.029Z,21.39
2022-11-03T18:18:45.889Z,21.35
2022-11-03T18:21:24.094Z,21.37
2022-11-03T18:23:51.684Z,21.35
2022-11-03T18:26:22.234Z,21.24
2022-11-03T18:28:53.112Z,21.32
2022-11-03T18:31:51.116Z,21.25
2022-11-03T18:37:36.096Z,21.30
2022-11-03T18:40:07.569Z,21.29
2022-11-03T18:42:40.117Z,21.27
2022-11-03T18:45:14.323Z,21.20
2022-11-03T18:47:49.593Z,21.26
2022-11-03T18:50:18.982Z,21.20
2022-11-03T18:52:50.100Z,21.23
2022-11-03T18:55:41.941Z,21.25
2022-11-03T18:58:17.970Z,21.30
2022-11-03T19:00:45.502Z,21.31
2022-11-03T19:03:19.884Z,21.26
2022-11-03T19:05:53.166Z,21.31
2022-11-03T19:08:23.701Z,21.32
2022-11-03T19:11:04.077Z,21.33
2022-11-03T19:13:57.037Z,21.34
2022-11-03T19:16:25.264Z,21.25
2022-11-03T19:18:55.692Z,21.24
2022-11-03T19:21:37.804Z,21.21
2022-11-03T19:24:12.692Z,21.11
2022-11-03T19:26:48.737Z,21.12
2022-11-03T19:29:25.905Z,21.10
2022-11-03T19:31:56.046Z,21.09
2022-11-03T19:34:36.848Z,21.02
2022-11-03T19:37:09.397Z,21.01
2022-11-03T19:39:52.685Z,20.98
2022-11-03T19:42:29.869Z,20.96
2022-11-03T19:45:02.071Z,20.98
2022-11-03T19:47:41.782Z,20.97
2022-11-03T19:50:22.954Z,20.92
2022-11-03T19:53:08.929Z,20.95
2022-11-03T19:55:42.770Z,20.85
2022-11-03T19:58:32.142Z,20.94
2022-11-03T20:01:08.783Z,20.82
2022-11-03T20:03:41.818Z,20.83
2022-11-03T20:06:19.102Z,20.79
2022-11-03T20:08:47.860Z,20.74
2022-11-03T20:11:19.738Z,20.77
2022-11-03T20:13:48.600Z,20.57
2022-11-03T20:16:32.829Z,20.66
2022-11-03T20:19:03.439Z,20.64
2022-11-03T20:21:34.460Z,20.60
2022-11-03T20:24:02.540Z,20.65
2022-11-03T20:26:35.109Z,20.69
2022-11-03T20:29:04.242Z,20.71
2022-11-03T20:31:31.782Z,20.63
2022-11-03T20:33:59.328Z,20.74
2022-11-03T20:36:42.135Z,20.74
2022-11-03T20:39:15.464Z,20.79
2022-11-03T20:41:57.018Z,20.78
2022-11-03T20:44:24.776Z,20.74
2022-11-03T20:46:57.422Z,20.76
2022-11-03T20:49:25.450Z,20.63
2022-11-03T20:52:14.395Z,20.63
2022-11-03T20:54:44.083Z,20.57
2022-11-03T20:57:37.579Z,20.69
2022-11-03T21:00:26.717Z,20.64
2022-11-03T21:03:37.760Z,20.67
2022-11-03T21:06:17.320Z,20.70
2022-11-03T21:09:14.111Z,20.74
2022-11-03T21:11:47.421Z,20.79
2022-11-03T21:14:31.118Z,20.80
2022-11-03T21:17:18.985Z,20.82
2022-11-03T21:19:59.853Z,20.83
2022-11-03T21:22:51.821Z,20.87
2022-11-03T21:25:27.156Z,20.87
2022-11-03T21:27:55.486Z,20.91
2022-11-03T21:30:24.251Z,20.91
2022-11-03T21:32:55.846Z,20.87
2022-11-03T21:35:24.333Z,20.84
2022-11-03T21:37:59.419Z,20.84
2022-11-03T21:40:27.455Z,20.77
2022-11-03T21:43:33.791Z,20.74
2022-11-03T21:46:19.728Z,20.70
2022-11-03T21:49:09.693Z,20.76
2022-11-03T21:51:37.885Z,20.75
2022-11-03T21:54:05.549Z,20.75
2022-11-03T21:56:33.162Z,20.80
2022-11-03T21:59:03.615Z,20.80
2022-11-03T22:01:32.053Z,20.81
2022-11-03T22:04:00.716Z,20.81
2022-11-03T22:06:28.177Z,20.82
2022-11-03T22:08:56.005Z,20.81
2022-11-03T22:11:23.821Z,20.79
2022-11-03T22:14:01.914Z,20.74
2022-11-03T22:16:40.173Z,20.73
2022-11-03T22:19:31.868Z,20.76
2022-11-03T22:22:19.145Z,20.79
2022-11-03T22:25:05.443Z,20.78
2022-11-03T22:27:34.368Z,20.78
2022-11-03T22:30:22.694Z,20.80
2022-11-03T22:32:52.792Z,20.81
2022-11-03T22:35:42.582Z,20.84
2022-11-03T22:38:15.846Z,20.76
2022-11-03T22:41:05.947Z,20.80
2022-11-03T22:43:52.261Z,20.81
2022-11-03T22:46:30.298Z,20.83
2022-11-03T22:49:09.018Z,20.84
2022-11-03T22:52:01.775Z,20.84
2022-11-03T22:54:37.043Z,20.84
2022-11-03T22:57:20.336Z,20.83
2022-11-03T22:59:53.171Z,20.81
2022-11-03T23:02:34.702Z,20.85
2022-11-03T23:05:11.255Z,20.86
2022-11-03T23:07:45.873Z,20.86
2022-11-03T23:10:15.122Z,20.88
2022-11-03T23:12:53.614Z,20.85
2022-11-03T23:15:43.594Z,20.88
2022-11-03T23:18:38.668Z,20.84
2022-11-03T23:21:13.325Z,20.89
2022-11-03T23:24:05.032Z,20.91
2022-11-03T23:26:39.837Z,20.88
2022-11-03T23:29:20.782Z,20.86
2022-11-03T23:31:57.511Z,20.74
2022-11-03T23:34:31.401Z,20.62
2022-11-03T23:37:00.310Z,20.57
2022-11-03T23:39:27.741Z,20.63
2022-11-03T23:41:55.259Z,20.50
2022-11-03T23:44:23.431Z,20.49
2022-11-03T23:47:09.995Z,20.37
2022-11-03T23:49:37.892Z,20.39
2022-11-03T23:52:05.537Z,20.31
2022-11-03T23:54:33.165Z,20.34
2022-11-03T23:57:19.506Z,20.29
2022-11-03T23:59:47.171Z,20.06
